sensor_id;sensor_type;location;lat;lon;timestamp;P1;durP1;ratioP1;P2;durP2;ratioP2
79017;SDS011;69817;44.694;37.774;2023-05-14T00:00:02;6.65;;;1.88;;
79017;SDS011;69817;44.694;37.774;2023-05-14T00:01:07;8.25;;;2.10;;
79017;SDS011;69817;44.694;37.774;2023-05-14T00:02:09;6.05;;;2.10;;
79017;SDS011;69817;44.694;37.774;2023-05-14T00:03:11;9.52;;;2.13;;
79017;SDS011;69817;44.694;37.774;2023-05-14T00:04:13;8.02;;;2.20;;
79017;SDS011;69817;44.694;37.774;2023-05-14T00:05:14;12.73;;;2.33;;
79017;SDS011;69817;44.694;37.774;2023-05-14T00:06:16;6.63;;;2.10;;
79017;SDS011;69817;44.694;37.774;2023-05-14T00:07:17;8.95;;;2.20;;
79017;SDS011;69817;44.694;37.774;2023-05-14T00:08:19;7.90;;;2.03;;
79017;SDS011;69817;44.694;37.774;2023-05-14T00:09:21;7.88;;;2.35;;
79017;SDS011;69817;44.694;37.774;2023-05-14T00:10:22;8.93;;;2.13;;
79017;SDS011;69817;44.694;37.774;2023-05-14T00:11:24;6.82;;;2.17;;
79017;SDS011;69817;44.694;37.774;2023-05-14T00:12:25;8.05;;;2.33;;
79017;SDS011;69817;44.694;37.774;2023-05-14T00:13:27;6.25;;;2.17;;
79017;SDS011;69817;44.694;37.774;2023-05-14T00:14:29;7.65;;;2.20;;
79017;SDS011;69817;44.694;37.774;2023-05-14T00:15:31;6.78;;;2.10;;
79017;SDS011;69817;44.694;37.774;2023-05-14T00:16:32;8.35;;;2.03;;
79017;SDS011;69817;44.694;37.774;2023-05-14T00:17:34;6.70;;;2.20;;
79017;SDS011;69817;44.694;37.774;2023-05-14T00:18:36;8.82;;;2.20;;
79017;SDS011;69817;44.694;37.774;2023-05-14T00:19:38;7.47;;;2.22;;
79017;SDS011;69817;44.694;37.774;2023-05-14T00:20:41;6.82;;;2.20;;
79017;SDS011;69817;44.694;37.774;2023-05-14T00:21:43;6.50;;;2.28;;
79017;SDS011;69817;44.694;37.774;2023-05-14T00:22:45;6.32;;;1.95;;
79017;SDS011;69817;44.694;37.774;2023-05-14T00:23:46;6.90;;;2.10;;
79017;SDS011;69817;44.694;37.774;2023-05-14T00:24:48;8.35;;;2.20;;
79017;SDS011;69817;44.694;37.774;2023-05-14T00:25:50;6.75;;;2.00;;
79017;SDS011;69817;44.694;37.774;2023-05-14T00:26:51;9.77;;;2.25;;
79017;SDS011;69817;44.694;37.774;2023-05-14T00:27:53;8.52;;;2.25;;
79017;SDS011;69817;44.694;37.774;2023-05-14T00:28:54;9.10;;;2.08;;
79017;SDS011;69817;44.694;37.774;2023-05-14T00:29:56;6.82;;;2.00;;
79017;SDS011;69817;44.694;37.774;2023-05-14T00:30:58;7.43;;;2.10;;
79017;SDS011;69817;44.694;37.774;2023-05-14T00:31:59;8.73;;;2.20;;
79017;SDS011;69817;44.694;37.774;2023-05-14T00:33:01;7.80;;;2.05;;
79017;SDS011;69817;44.694;37.774;2023-05-14T00:34:03;6.85;;;1.85;;
79017;SDS011;69817;44.694;37.774;2023-05-14T00:35:05;5.40;;;2.00;;
79017;SDS011;69817;44.694;37.774;2023-05-14T00:36:06;6.30;;;1.75;;
79017;SDS011;69817;44.694;37.774;2023-05-14T00:37:08;6.53;;;2.40;;
79017;SDS011;69817;44.694;37.774;2023-05-14T00:38:10;9.85;;;1.90;;
79017;SDS011;69817;44.694;37.774;2023-05-14T00:39:16;9.25;;;2.22;;
79017;SDS011;69817;44.694;37.774;2023-05-14T00:40:18;6.97;;;2.33;;
79017;SDS011;69817;44.694;37.774;2023-05-14T00:41:19;9.50;;;2.10;;
79017;SDS011;69817;44.694;37.774;2023-05-14T00:42:21;17.92;;;2.22;;
79017;SDS011;69817;44.694;37.774;2023-05-14T00:43:23;14.90;;;1.92;;
79017;SDS011;69817;44.694;37.774;2023-05-14T00:44:25;9.07;;;2.28;;
79017;SDS011;69817;44.694;37.774;2023-05-14T00:45:27;14.25;;;2.60;;
79017;SDS011;69817;44.694;37.774;2023-05-14T00:46:29;10.50;;;2.28;;
79017;SDS011;69817;44.694;37.774;2023-05-14T00:47:30;7.50;;;2.38;;
79017;SDS011;69817;44.694;37.774;2023-05-14T00:48:34;9.52;;;2.80;;
79017;SDS011;69817;44.694;37.774;2023-05-14T00:49:36;11.80;;;2.30;;
79017;SDS011;69817;44.694;37.774;2023-05-14T00:50:40;9.30;;;2.50;;
79017;SDS011;69817;44.694;37.774;2023-05-14T00:51:42;9.20;;;2.90;;
79017;SDS011;69817;44.694;37.774;2023-05-14T00:52:46;12.10;;;2.50;;
79017;SDS011;69817;44.694;37.774;2023-05-14T00:53:48;27.38;;;3.88;;
79017;SDS011;69817;44.694;37.774;2023-05-14T00:54:50;22.75;;;3.20;;
79017;SDS011;69817;44.694;37.774;2023-05-14T00:55:52;17.23;;;3.22;;
79017;SDS011;69817;44.694;37.774;2023-05-14T00:56:54;10.73;;;3.03;;
79017;SDS011;69817;44.694;37.774;2023-05-14T00:57:56;17.55;;;3.40;;
79017;SDS011;69817;44.694;37.774;2023-05-14T00:59:00;21.77;;;3.20;;
79017;SDS011;69817;44.694;37.774;2023-05-14T01:00:02;12.13;;;3.25;;
79017;SDS011;69817;44.694;37.774;2023-05-14T01:01:05;17.52;;;3.53;;
79017;SDS011;69817;44.694;37.774;2023-05-14T01:02:07;19.52;;;3.22;;
79017;SDS011;69817;44.694;37.774;2023-05-14T01:03:09;17.15;;;3.53;;
79017;SDS011;69817;44.694;37.774;2023-05-14T01:04:10;14.93;;;3.30;;
79017;SDS011;69817;44.694;37.774;2023-05-14T01:05:12;16.38;;;3.17;;
79017;SDS011;69817;44.694;37.774;2023-05-14T01:09:28;9.90;;;2.90;;
79017;SDS011;69817;44.694;37.774;2023-05-14T01:11:00;13.80;;;3.10;;
79017;SDS011;69817;44.694;37.774;2023-05-14T01:13:28;12.32;;;3.03;;
79017;SDS011;69817;44.694;37.774;2023-05-14T01:16:15;11.52;;;2.70;;
79017;SDS011;69817;44.694;37.774;2023-05-14T01:17:21;8.65;;;2.60;;
79017;SDS011;69817;44.694;37.774;2023-05-14T01:18:24;10.52;;;2.70;;
79017;SDS011;69817;44.694;37.774;2023-05-14T01:20:32;12.65;;;3.40;;
79017;SDS011;69817;44.694;37.774;2023-05-14T01:21:37;16.08;;;3.33;;
79017;SDS011;69817;44.694;37.774;2023-05-14T01:22:42;9.05;;;3.17;;
79017;SDS011;69817;44.694;37.774;2023-05-14T01:23:44;7.82;;;3.40;;
79017;SDS011;69817;44.694;37.774;2023-05-14T01:24:45;12.60;;;3.33;;
79017;SDS011;69817;44.694;37.774;2023-05-14T01:25:47;8.57;;;3.60;;
79017;SDS011;69817;44.694;37.774;2023-05-14T01:26:49;9.35;;;2.92;;
79017;SDS011;69817;44.694;37.774;2023-05-14T01:28:58;9.35;;;3.20;;
79017;SDS011;69817;44.694;37.774;2023-05-14T01:31:15;9.48;;;3.42;;
79017;SDS011;69817;44.694;37.774;2023-05-14T01:32:24;10.15;;;3.30;;
79017;SDS011;69817;44.694;37.774;2023-05-14T01:33:28;12.88;;;3.17;;
79017;SDS011;69817;44.694;37.774;2023-05-14T01:34:31;8.55;;;3.50;;
79017;SDS011;69817;44.694;37.774;2023-05-14T01:35:35;8.82;;;2.95;;
79017;SDS011;69817;44.694;37.774;2023-05-14T01:36:37;9.48;;;3.28;;
79017;SDS011;69817;44.694;37.774;2023-05-14T01:37:40;9.30;;;3.63;;
79017;SDS011;69817;44.694;37.774;2023-05-14T01:38:46;9.77;;;3.60;;
79017;SDS011;69817;44.694;37.774;2023-05-14T01:39:49;8.10;;;3.15;;
79017;SDS011;69817;44.694;37.774;2023-05-14T01:40:52;9.88;;;3.15;;
79017;SDS011;69817;44.694;37.774;2023-05-14T01:41:55;9.07;;;3.20;;
79017;SDS011;69817;44.694;37.774;2023-05-14T01:42:57;10.68;;;3.25;;
79017;SDS011;69817;44.694;37.774;2023-05-14T01:43:59;10.18;;;3.30;;
79017;SDS011;69817;44.694;37.774;2023-05-14T01:45:00;8.45;;;3.22;;
79017;SDS011;69817;44.694;37.774;2023-05-14T01:46:03;10.45;;;3.97;;
79017;SDS011;69817;44.694;37.774;2023-05-14T01:47:04;8.93;;;3.33;;
79017;SDS011;69817;44.694;37.774;2023-05-14T01:48:06;7.43;;;3.25;;
79017;SDS011;69817;44.694;37.774;2023-05-14T01:49:08;9.32;;;2.97;;
79017;SDS011;69817;44.694;37.774;2023-05-14T01:50:09;9.00;;;2.97;;
79017;SDS011;69817;44.694;37.774;2023-05-14T01:51:11;9.30;;;3.50;;
79017;SDS011;69817;44.694;37.774;2023-05-14T01:52:14;9.23;;;3.30;;
79017;SDS011;69817;44.694;37.774;2023-05-14T01:53:17;10.38;;;3.42;;
79017;SDS011;69817;44.694;37.774;2023-05-14T01:54:19;9.02;;;3.78;;
79017;SDS011;69817;44.694;37.774;2023-05-14T01:55:20;9.70;;;3.25;;
79017;SDS011;69817;44.694;37.774;2023-05-14T01:56:24;8.50;;;2.90;;
79017;SDS011;69817;44.694;37.774;2023-05-14T01:57:26;8.73;;;3.33;;
79017;SDS011;69817;44.694;37.774;2023-05-14T01:58:27;9.73;;;3.30;;
79017;SDS011;69817;44.694;37.774;2023-05-14T01:59:29;8.38;;;3.30;;
79017;SDS011;69817;44.694;37.774;2023-05-14T02:00:30;8.00;;;3.00;;
79017;SDS011;69817;44.694;37.774;2023-05-14T02:01:32;8.13;;;3.60;;
79017;SDS011;69817;44.694;37.774;2023-05-14T02:02:34;9.10;;;3.03;;
79017;SDS011;69817;44.694;37.774;2023-05-14T02:03:35;9.93;;;3.25;;
79017;SDS011;69817;44.694;37.774;2023-05-14T02:04:37;10.05;;;2.97;;
79017;SDS011;69817;44.694;37.774;2023-05-14T02:05:38;11.65;;;3.45;;
79017;SDS011;69817;44.694;37.774;2023-05-14T02:06:40;10.43;;;3.35;;
79017;SDS011;69817;44.694;37.774;2023-05-14T02:07:41;8.48;;;3.03;;
79017;SDS011;69817;44.694;37.774;2023-05-14T02:08:43;8.38;;;3.30;;
79017;SDS011;69817;44.694;37.774;2023-05-14T02:09:44;6.85;;;3.05;;
79017;SDS011;69817;44.694;37.774;2023-05-14T02:10:46;7.35;;;3.00;;
79017;SDS011;69817;44.694;37.774;2023-05-14T02:11:48;6.80;;;2.92;;
79017;SDS011;69817;44.694;37.774;2023-05-14T02:12:49;8.27;;;3.10;;
79017;SDS011;69817;44.694;37.774;2023-05-14T02:13:50;6.78;;;2.72;;
79017;SDS011;69817;44.694;37.774;2023-05-14T02:14:52;7.72;;;3.10;;
79017;SDS011;69817;44.694;37.774;2023-05-14T02:15:53;8.48;;;2.80;;
79017;SDS011;69817;44.694;37.774;2023-05-14T02:16:55;7.97;;;2.97;;
79017;SDS011;69817;44.694;37.774;2023-05-14T02:17:57;8.65;;;3.22;;
79017;SDS011;69817;44.694;37.774;2023-05-14T02:18:58;6.53;;;2.80;;
79017;SDS011;69817;44.694;37.774;2023-05-14T02:20:00;8.05;;;2.78;;
79017;SDS011;69817;44.694;37.774;2023-05-14T02:21:02;7.90;;;2.83;;
79017;SDS011;69817;44.694;37.774;2023-05-14T02:22:03;10.15;;;3.25;;
79017;SDS011;69817;44.694;37.774;2023-05-14T02:23:06;7.43;;;2.72;;
79017;SDS011;69817;44.694;37.774;2023-05-14T02:24:07;7.05;;;2.78;;
79017;SDS011;69817;44.694;37.774;2023-05-14T02:25:09;7.85;;;2.92;;
79017;SDS011;69817;44.694;37.774;2023-05-14T02:26:11;7.40;;;2.92;;
79017;SDS011;69817;44.694;37.774;2023-05-14T02:27:12;6.65;;;3.00;;
79017;SDS011;69817;44.694;37.774;2023-05-14T02:28:14;6.78;;;2.95;;
79017;SDS011;69817;44.694;37.774;2023-05-14T02:29:15;8.02;;;3.00;;
79017;SDS011;69817;44.694;37.774;2023-05-14T02:30:17;9.82;;;2.90;;
79017;SDS011;69817;44.694;37.774;2023-05-14T02:31:18;5.47;;;2.60;;
79017;SDS011;69817;44.694;37.774;2023-05-14T02:32:20;7.75;;;3.03;;
79017;SDS011;69817;44.694;37.774;2023-05-14T02:33:22;6.20;;;2.72;;
79017;SDS011;69817;44.694;37.774;2023-05-14T02:34:23;7.43;;;2.88;;
79017;SDS011;69817;44.694;37.774;2023-05-14T02:35:25;5.80;;;2.65;;
79017;SDS011;69817;44.694;37.774;2023-05-14T02:36:27;6.00;;;2.53;;
79017;SDS011;69817;44.694;37.774;2023-05-14T02:37:28;6.72;;;2.72;;
79017;SDS011;69817;44.694;37.774;2023-05-14T02:38:30;9.77;;;2.90;;
79017;SDS011;69817;44.694;37.774;2023-05-14T02:39:31;7.28;;;3.03;;
79017;SDS011;69817;44.694;37.774;2023-05-14T02:40:33;6.63;;;2.60;;
79017;SDS011;69817;44.694;37.774;2023-05-14T02:41:36;7.35;;;2.92;;
79017;SDS011;69817;44.694;37.774;2023-05-14T02:42:38;7.35;;;2.60;;
79017;SDS011;69817;44.694;37.774;2023-05-14T02:43:39;6.85;;;2.58;;
79017;SDS011;69817;44.694;37.774;2023-05-14T02:44:41;6.72;;;2.80;;
79017;SDS011;69817;44.694;37.774;2023-05-14T02:45:43;7.05;;;2.72;;
79017;SDS011;69817;44.694;37.774;2023-05-14T02:46:45;6.63;;;2.30;;
79017;SDS011;69817;44.694;37.774;2023-05-14T02:47:47;6.55;;;2.65;;
79017;SDS011;69817;44.694;37.774;2023-05-14T02:48:50;7.00;;;2.80;;
79017;SDS011;69817;44.694;37.774;2023-05-14T02:49:51;6.22;;;2.72;;
79017;SDS011;69817;44.694;37.774;2023-05-14T02:50:52;6.28;;;2.63;;
79017;SDS011;69817;44.694;37.774;2023-05-14T02:51:54;7.38;;;2.70;;
79017;SDS011;69817;44.694;37.774;2023-05-14T02:52:55;5.10;;;2.40;;
79017;SDS011;69817;44.694;37.774;2023-05-14T02:53:57;8.68;;;2.90;;
79017;SDS011;69817;44.694;37.774;2023-05-14T02:54:59;6.18;;;2.58;;
79017;SDS011;69817;44.694;37.774;2023-05-14T02:56:01;6.57;;;2.45;;
79017;SDS011;69817;44.694;37.774;2023-05-14T02:57:02;7.10;;;2.38;;
79017;SDS011;69817;44.694;37.774;2023-05-14T02:58:04;8.43;;;3.10;;
79017;SDS011;69817;44.694;37.774;2023-05-14T02:59:05;7.25;;;2.83;;
79017;SDS011;69817;44.694;37.774;2023-05-14T03:00:07;8.30;;;2.40;;
79017;SDS011;69817;44.694;37.774;2023-05-14T03:01:09;5.45;;;2.53;;
79017;SDS011;69817;44.694;37.774;2023-05-14T03:02:11;6.05;;;2.67;;
79017;SDS011;69817;44.694;37.774;2023-05-14T03:03:12;6.38;;;2.53;;
79017;SDS011;69817;44.694;37.774;2023-05-14T03:04:15;7.03;;;2.53;;
79017;SDS011;69817;44.694;37.774;2023-05-14T03:05:17;6.85;;;2.50;;
79017;SDS011;69817;44.694;37.774;2023-05-14T03:06:18;6.60;;;2.65;;
79017;SDS011;69817;44.694;37.774;2023-05-14T03:07:20;6.03;;;2.55;;
79017;SDS011;69817;44.694;37.774;2023-05-14T03:08:21;6.25;;;2.63;;
79017;SDS011;69817;44.694;37.774;2023-05-14T03:09:23;6.38;;;2.58;;
79017;SDS011;69817;44.694;37.774;2023-05-14T03:10:25;6.70;;;2.40;;
79017;SDS011;69817;44.694;37.774;2023-05-14T03:11:26;6.18;;;2.50;;
79017;SDS011;69817;44.694;37.774;2023-05-14T03:12:28;5.95;;;2.42;;
79017;SDS011;69817;44.694;37.774;2023-05-14T03:13:30;6.45;;;2.30;;
79017;SDS011;69817;44.694;37.774;2023-05-14T03:14:31;6.53;;;2.50;;
79017;SDS011;69817;44.694;37.774;2023-05-14T03:15:33;6.65;;;2.90;;
79017;SDS011;69817;44.694;37.774;2023-05-14T03:16:35;7.57;;;2.30;;
79017;SDS011;69817;44.694;37.774;2023-05-14T03:17:36;7.97;;;2.65;;
79017;SDS011;69817;44.694;37.774;2023-05-14T03:18:38;8.38;;;3.10;;
79017;SDS011;69817;44.694;37.774;2023-05-14T03:19:39;6.35;;;2.60;;
79017;SDS011;69817;44.694;37.774;2023-05-14T03:20:41;7.55;;;2.40;;
79017;SDS011;69817;44.694;37.774;2023-05-14T03:21:43;7.50;;;2.58;;
79017;SDS011;69817;44.694;37.774;2023-05-14T03:22:45;6.10;;;2.30;;
79017;SDS011;69817;44.694;37.774;2023-05-14T03:24:49;6.05;;;2.20;;
79017;SDS011;69817;44.694;37.774;2023-05-14T03:25:51;5.28;;;2.30;;
79017;SDS011;69817;44.694;37.774;2023-05-14T03:26:52;6.43;;;2.58;;
79017;SDS011;69817;44.694;37.774;2023-05-14T03:27:53;6.07;;;2.40;;
79017;SDS011;69817;44.694;37.774;2023-05-14T03:28:55;6.07;;;2.50;;
79017;SDS011;69817;44.694;37.774;2023-05-14T03:29:58;5.65;;;2.60;;
79017;SDS011;69817;44.694;37.774;2023-05-14T03:31:00;5.57;;;2.42;;
79017;SDS011;69817;44.694;37.774;2023-05-14T03:32:01;6.53;;;2.63;;
79017;SDS011;69817;44.694;37.774;2023-05-14T03:33:03;5.45;;;2.30;;
79017;SDS011;69817;44.694;37.774;2023-05-14T03:34:04;6.53;;;2.75;;
79017;SDS011;69817;44.694;37.774;2023-05-14T03:35:06;6.88;;;2.50;;
79017;SDS011;69817;44.694;37.774;2023-05-14T03:36:08;6.93;;;2.60;;
79017;SDS011;69817;44.694;37.774;2023-05-14T03:37:09;6.15;;;2.40;;
79017;SDS011;69817;44.694;37.774;2023-05-14T03:38:11;5.35;;;2.30;;
79017;SDS011;69817;44.694;37.774;2023-05-14T03:39:13;7.05;;;2.63;;
79017;SDS011;69817;44.694;37.774;2023-05-14T03:40:20;5.85;;;2.50;;
79017;SDS011;69817;44.694;37.774;2023-05-14T03:41:22;6.85;;;2.45;;
79017;SDS011;69817;44.694;37.774;2023-05-14T03:42:23;7.95;;;2.83;;
79017;SDS011;69817;44.694;37.774;2023-05-14T03:43:25;7.65;;;2.28;;
79017;SDS011;69817;44.694;37.774;2023-05-14T03:44:26;6.32;;;2.55;;
79017;SDS011;69817;44.694;37.774;2023-05-14T03:45:28;6.22;;;2.40;;
79017;SDS011;69817;44.694;37.774;2023-05-14T03:46:32;5.90;;;2.72;;
79017;SDS011;69817;44.694;37.774;2023-05-14T03:47:34;5.50;;;2.30;;
79017;SDS011;69817;44.694;37.774;2023-05-14T03:48:35;6.07;;;2.47;;
79017;SDS011;69817;44.694;37.774;2023-05-14T03:49:38;5.88;;;2.53;;
79017;SDS011;69817;44.694;37.774;2023-05-14T03:50:42;5.45;;;2.30;;
79017;SDS011;69817;44.694;37.774;2023-05-14T03:51:44;6.20;;;2.40;;
79017;SDS011;69817;44.694;37.774;2023-05-14T03:52:45;6.25;;;2.47;;
79017;SDS011;69817;44.694;37.774;2023-05-14T03:53:47;7.90;;;2.50;;
79017;SDS011;69817;44.694;37.774;2023-05-14T03:54:48;5.88;;;2.42;;
79017;SDS011;69817;44.694;37.774;2023-05-14T03:55:50;6.18;;;2.33;;
79017;SDS011;69817;44.694;37.774;2023-05-14T03:56:51;5.25;;;2.38;;
79017;SDS011;69817;44.694;37.774;2023-05-14T03:57:53;5.38;;;2.53;;
79017;SDS011;69817;44.694;37.774;2023-05-14T03:58:54;5.38;;;2.60;;
79017;SDS011;69817;44.694;37.774;2023-05-14T03:59:56;7.05;;;2.80;;
79017;SDS011;69817;44.694;37.774;2023-05-14T04:00:58;6.65;;;2.33;;
79017;SDS011;69817;44.694;37.774;2023-05-14T04:02:00;5.43;;;2.25;;
79017;SDS011;69817;44.694;37.774;2023-05-14T04:03:02;5.93;;;2.42;;
79017;SDS011;69817;44.694;37.774;2023-05-14T04:04:03;5.88;;;2.75;;
79017;SDS011;69817;44.694;37.774;2023-05-14T04:05:05;9.18;;;3.30;;
79017;SDS011;69817;44.694;37.774;2023-05-14T04:06:07;9.02;;;4.50;;
79017;SDS011;69817;44.694;37.774;2023-05-14T04:07:09;14.60;;;5.68;;
79017;SDS011;69817;44.694;37.774;2023-05-14T04:08:10;11.88;;;6.35;;
79017;SDS011;69817;44.694;37.774;2023-05-14T04:09:12;12.32;;;7.13;;
79017;SDS011;69817;44.694;37.774;2023-05-14T04:10:14;17.15;;;9.38;;
79017;SDS011;69817;44.694;37.774;2023-05-14T04:11:15;22.30;;;13.20;;
79017;SDS011;69817;44.694;37.774;2023-05-14T04:12:17;22.33;;;13.60;;
79017;SDS011;69817;44.694;37.774;2023-05-14T04:13:18;25.48;;;18.30;;
79017;SDS011;69817;44.694;37.774;2023-05-14T04:14:21;26.40;;;20.95;;
79017;SDS011;69817;44.694;37.774;2023-05-14T04:15:22;39.75;;;31.17;;
79017;SDS011;69817;44.694;37.774;2023-05-14T04:16:24;52.53;;;41.47;;
79017;SDS011;69817;44.694;37.774;2023-05-14T04:17:26;66.72;;;49.53;;
79017;SDS011;69817;44.694;37.774;2023-05-14T04:18:28;65.10;;;51.42;;
79017;SDS011;69817;44.694;37.774;2023-05-14T04:19:29;67.93;;;55.40;;
79017;SDS011;69817;44.694;37.774;2023-05-14T04:20:31;63.67;;;52.90;;
79017;SDS011;69817;44.694;37.774;2023-05-14T04:21:32;65.20;;;52.85;;
79017;SDS011;69817;44.694;37.774;2023-05-14T04:22:34;63.45;;;52.15;;
79017;SDS011;69817;44.694;37.774;2023-05-14T04:23:36;56.83;;;49.08;;
79017;SDS011;69817;44.694;37.774;2023-05-14T04:24:37;59.92;;;51.28;;
79017;SDS011;69817;44.694;37.774;2023-05-14T04:25:39;63.05;;;51.47;;
79017;SDS011;69817;44.694;37.774;2023-05-14T04:26:40;59.72;;;50.15;;
79017;SDS011;69817;44.694;37.774;2023-05-14T04:27:42;63.03;;;56.10;;
79017;SDS011;69817;44.694;37.774;2023-05-14T04:28:43;58.20;;;50.38;;
79017;SDS011;69817;44.694;37.774;2023-05-14T04:29:45;58.25;;;51.38;;
79017;SDS011;69817;44.694;37.774;2023-05-14T04:30:47;56.75;;;49.95;;
79017;SDS011;69817;44.694;37.774;2023-05-14T04:31:49;54.50;;;48.70;;
79017;SDS011;69817;44.694;37.774;2023-05-14T04:32:50;59.00;;;52.83;;
79017;SDS011;69817;44.694;37.774;2023-05-14T04:33:52;55.17;;;49.00;;
79017;SDS011;69817;44.694;37.774;2023-05-14T04:34:53;57.03;;;48.42;;
79017;SDS011;69817;44.694;37.774;2023-05-14T04:35:55;54.53;;;48.67;;
79017;SDS011;69817;44.694;37.774;2023-05-14T04:36:57;56.03;;;50.33;;
79017;SDS011;69817;44.694;37.774;2023-05-14T04:37:58;53.50;;;47.78;;
79017;SDS011;69817;44.694;37.774;2023-05-14T04:39:00;59.58;;;53.20;;
79017;SDS011;69817;44.694;37.774;2023-05-14T04:40:02;50.47;;;44.08;;
79017;SDS011;69817;44.694;37.774;2023-05-14T04:41:08;43.60;;;38.90;;
79017;SDS011;69817;44.694;37.774;2023-05-14T04:42:10;37.25;;;31.70;;
79017;SDS011;69817;44.694;37.774;2023-05-14T04:43:11;40.60;;;34.65;;
79017;SDS011;69817;44.694;37.774;2023-05-14T04:44:13;38.10;;;34.20;;
79017;SDS011;69817;44.694;37.774;2023-05-14T04:45:14;41.80;;;37.28;;
79017;SDS011;69817;44.694;37.774;2023-05-14T04:46:16;37.67;;;33.67;;
79017;SDS011;69817;44.694;37.774;2023-05-14T04:47:18;35.95;;;32.25;;
79017;SDS011;69817;44.694;37.774;2023-05-14T04:48:21;34.55;;;30.77;;
79017;SDS011;69817;44.694;37.774;2023-05-14T04:49:22;34.38;;;30.75;;
79017;SDS011;69817;44.694;37.774;2023-05-14T04:50:23;29.70;;;26.67;;
79017;SDS011;69817;44.694;37.774;2023-05-14T04:51:25;30.50;;;27.23;;
79017;SDS011;69817;44.694;37.774;2023-05-14T04:52:27;31.05;;;25.15;;
79017;SDS011;69817;44.694;37.774;2023-05-14T04:53:29;27.70;;;24.70;;
79017;SDS011;69817;44.694;37.774;2023-05-14T04:54:30;32.08;;;24.92;;
79017;SDS011;69817;44.694;37.774;2023-05-14T04:55:32;27.23;;;24.02;;
79017;SDS011;69817;44.694;37.774;2023-05-14T04:56:33;23.17;;;20.77;;
79017;SDS011;69817;44.694;37.774;2023-05-14T04:57:35;25.70;;;21.50;;
79017;SDS011;69817;44.694;37.774;2023-05-14T04:58:36;26.00;;;20.88;;
79017;SDS011;69817;44.694;37.774;2023-05-14T04:59:38;22.10;;;17.88;;
79017;SDS011;69817;44.694;37.774;2023-05-14T05:00:39;22.67;;;19.63;;
79017;SDS011;69817;44.694;37.774;2023-05-14T05:01:41;20.88;;;18.55;;
79017;SDS011;69817;44.694;37.774;2023-05-14T05:02:43;21.30;;;18.05;;
79017;SDS011;69817;44.694;37.774;2023-05-14T05:03:44;21.45;;;18.77;;
79017;SDS011;69817;44.694;37.774;2023-05-14T05:04:46;21.95;;;18.10;;
79017;SDS011;69817;44.694;37.774;2023-05-14T05:05:48;21.90;;;16.75;;
79017;SDS011;69817;44.694;37.774;2023-05-14T05:06:49;20.33;;;15.93;;
79017;SDS011;69817;44.694;37.774;2023-05-14T05:07:51;17.73;;;15.70;;
79017;SDS011;69817;44.694;37.774;2023-05-14T05:08:52;20.23;;;16.08;;
79017;SDS011;69817;44.694;37.774;2023-05-14T05:09:55;17.60;;;14.10;;
79017;SDS011;69817;44.694;37.774;2023-05-14T05:10:56;18.35;;;15.32;;
79017;SDS011;69817;44.694;37.774;2023-05-14T05:11:58;23.35;;;15.40;;
79017;SDS011;69817;44.694;37.774;2023-05-14T05:13:01;18.55;;;14.43;;
79017;SDS011;69817;44.694;37.774;2023-05-14T05:14:02;17.10;;;11.95;;
79017;SDS011;69817;44.694;37.774;2023-05-14T05:15:04;15.70;;;11.18;;
79017;SDS011;69817;44.694;37.774;2023-05-14T05:16:07;16.00;;;11.30;;
79017;SDS011;69817;44.694;37.774;2023-05-14T05:17:09;17.73;;;11.73;;
79017;SDS011;69817;44.694;37.774;2023-05-14T05:18:10;15.10;;;10.57;;
79017;SDS011;69817;44.694;37.774;2023-05-14T05:19:12;14.20;;;10.30;;
79017;SDS011;69817;44.694;37.774;2023-05-14T05:20:13;12.20;;;9.60;;
79017;SDS011;69817;44.694;37.774;2023-05-14T05:21:15;13.93;;;9.07;;
79017;SDS011;69817;44.694;37.774;2023-05-14T05:22:17;12.25;;;9.40;;
79017;SDS011;69817;44.694;37.774;2023-05-14T05:23:19;13.82;;;8.48;;
79017;SDS011;69817;44.694;37.774;2023-05-14T05:24:21;12.30;;;8.30;;
79017;SDS011;69817;44.694;37.774;2023-05-14T05:25:22;12.55;;;7.50;;
79017;SDS011;69817;44.694;37.774;2023-05-14T05:26:25;10.15;;;6.32;;
79017;SDS011;69817;44.694;37.774;2023-05-14T05:27:26;9.93;;;6.38;;
79017;SDS011;69817;44.694;37.774;2023-05-14T05:28:28;10.38;;;5.80;;
79017;SDS011;69817;44.694;37.774;2023-05-14T05:29:29;9.13;;;6.15;;
79017;SDS011;69817;44.694;37.774;2023-05-14T05:30:31;9.52;;;5.05;;
79017;SDS011;69817;44.694;37.774;2023-05-14T05:31:33;8.90;;;4.88;;
79017;SDS011;69817;44.694;37.774;2023-05-14T05:32:34;9.25;;;5.00;;
79017;SDS011;69817;44.694;37.774;2023-05-14T05:33:36;9.02;;;5.28;;
79017;SDS011;69817;44.694;37.774;2023-05-14T05:34:38;9.35;;;4.90;;
79017;SDS011;69817;44.694;37.774;2023-05-14T05:35:39;8.90;;;5.13;;
79017;SDS011;69817;44.694;37.774;2023-05-14T05:36:41;11.40;;;5.15;;
79017;SDS011;69817;44.694;37.774;2023-05-14T05:37:43;12.13;;;4.78;;
79017;SDS011;69817;44.694;37.774;2023-05-14T05:38:45;9.18;;;4.60;;
79017;SDS011;69817;44.694;37.774;2023-05-14T05:39:47;9.55;;;5.13;;
79017;SDS011;69817;44.694;37.774;2023-05-14T05:40:49;9.57;;;4.82;;
79017;SDS011;69817;44.694;37.774;2023-05-14T05:41:52;7.88;;;4.43;;
79017;SDS011;69817;44.694;37.774;2023-05-14T05:42:54;8.50;;;5.32;;
79017;SDS011;69817;44.694;37.774;2023-05-14T05:43:55;10.05;;;4.97;;
79017;SDS011;69817;44.694;37.774;2023-05-14T05:44:57;12.55;;;5.25;;
79017;SDS011;69817;44.694;37.774;2023-05-14T05:45:59;9.88;;;4.70;;
79017;SDS011;69817;44.694;37.774;2023-05-14T05:47:01;7.90;;;4.28;;
79017;SDS011;69817;44.694;37.774;2023-05-14T05:48:02;9.38;;;4.95;;
79017;SDS011;69817;44.694;37.774;2023-05-14T05:49:04;8.63;;;4.50;;
79017;SDS011;69817;44.694;37.774;2023-05-14T05:50:06;8.00;;;4.10;;
79017;SDS011;69817;44.694;37.774;2023-05-14T05:51:08;7.93;;;4.30;;
79017;SDS011;69817;44.694;37.774;2023-05-14T05:52:11;7.25;;;4.07;;
79017;SDS011;69817;44.694;37.774;2023-05-14T05:53:12;8.00;;;3.92;;
79017;SDS011;69817;44.694;37.774;2023-05-14T05:54:16;7.45;;;3.75;;
79017;SDS011;69817;44.694;37.774;2023-05-14T05:55:19;7.65;;;3.58;;
79017;SDS011;69817;44.694;37.774;2023-05-14T05:56:21;8.15;;;3.85;;
79017;SDS011;69817;44.694;37.774;2023-05-14T05:57:22;7.70;;;3.72;;
79017;SDS011;69817;44.694;37.774;2023-05-14T05:58:27;8.07;;;3.53;;
79017;SDS011;69817;44.694;37.774;2023-05-14T05:59:29;8.13;;;4.18;;
79017;SDS011;69817;44.694;37.774;2023-05-14T06:00:31;8.70;;;3.83;;
79017;SDS011;69817;44.694;37.774;2023-05-14T06:01:33;9.10;;;3.58;;
79017;SDS011;69817;44.694;37.774;2023-05-14T06:02:35;8.10;;;3.58;;
79017;SDS011;69817;44.694;37.774;2023-05-14T06:03:36;7.75;;;3.60;;
79017;SDS011;69817;44.694;37.774;2023-05-14T06:04:38;10.95;;;3.90;;
79017;SDS011;69817;44.694;37.774;2023-05-14T06:05:39;8.15;;;3.50;;
79017;SDS011;69817;44.694;37.774;2023-05-14T06:06:46;7.85;;;3.63;;
79017;SDS011;69817;44.694;37.774;2023-05-14T06:07:47;10.07;;;3.47;;
79017;SDS011;69817;44.694;37.774;2023-05-14T06:09:13;8.05;;;3.45;;
79017;SDS011;69817;44.694;37.774;2023-05-14T06:10:19;6.35;;;3.55;;
79017;SDS011;69817;44.694;37.774;2023-05-14T06:11:21;15.93;;;3.67;;
79017;SDS011;69817;44.694;37.774;2023-05-14T06:12:22;7.57;;;3.60;;
79017;SDS011;69817;44.694;37.774;2023-05-14T06:13:24;7.55;;;3.47;;
79017;SDS011;69817;44.694;37.774;2023-05-14T06:14:25;8.48;;;3.40;;
79017;SDS011;69817;44.694;37.774;2023-05-14T06:15:45;9.85;;;3.30;;
79017;SDS011;69817;44.694;37.774;2023-05-14T06:16:47;7.75;;;3.30;;